createdAt,value
2022-11-15T00:00:34.608Z,47.3
2022-11-15T00:01:37.325Z,47.3
2022-11-15T00:02:51.115Z,47.2
2022-11-15T00:04:03.732Z,47.2
2022-11-15T00:05:07.601Z,47.2
2022-11-15T00:06:20.242Z,47.3
2022-11-15T00:07:54.751Z,47.2
2022-11-15T00:08:38.691Z,47.3
2022-11-15T00:09:51.292Z,47.3
2022-11-15T00:11:04.618Z,47.2
2022-11-15T00:12:07.271Z,47.2
2022-11-15T00:13:20.600Z,47.2
2022-11-15T00:14:33.215Z,47.3
2022-11-15T00:15:46.590Z,47.3
2022-11-15T00:16:49.261Z,47.2
2022-11-15T00:18:05.119Z,47.2
2022-11-15T00:19:07.802Z,47.3
2022-11-15T00:20:21.144Z,47.3
2022-11-15T00:21:33.783Z,47.3
2022-11-15T00:22:47.102Z,47.3
2022-11-15T00:23:49.943Z,47.3
2022-11-15T00:25:03.610Z,47.3
2022-11-15T00:26:16.220Z,47.3
2022-11-15T00:27:19.590Z,47.3
2022-11-15T00:28:32.226Z,47.3
2022-11-15T00:29:45.604Z,47.4
2022-11-15T00:30:48.282Z,47.3
2022-11-15T00:32:01.605Z,47.3
2022-11-15T00:33:14.215Z,47.3
2022-11-15T00:34:27.638Z,47.3
2022-11-15T00:35:30.337Z,47.3
2022-11-15T00:36:43.605Z,47.3
2022-11-15T00:37:56.240Z,47.3
2022-11-15T00:38:59.638Z,47.3
2022-11-15T00:40:12.032Z,47.4
2022-11-15T00:41:25.649Z,47.4
2022-11-15T00:42:28.157Z,47.4
2022-11-15T00:43:41.622Z,47.4
2022-11-15T00:44:54.156Z,47.4
2022-11-15T00:46:07.676Z,47.3
2022-11-15T00:47:10.448Z,47.3
2022-11-15T00:48:24.172Z,47.4
2022-11-15T00:49:36.882Z,47.3
2022-11-15T00:50:40.588Z,47.4
2022-11-15T00:51:53.316Z,47.4
2022-11-15T00:53:06.633Z,47.4
2022-11-15T00:54:09.474Z,47.4
2022-11-15T00:55:23.125Z,47.4
2022-11-15T00:56:35.739Z,47.4
2022-11-15T00:57:39.135Z,47.4
2022-11-15T00:58:51.748Z,47.4
2022-11-15T01:00:05.132Z,47.4
2022-11-15T01:01:17.805Z,47.4
2022-11-15T01:02:21.645Z,47.4
2022-11-15T01:03:34.319Z,47.4
2022-11-15T01:04:47.619Z,47.4
2022-11-15T01:06:10.126Z,47.4
2022-11-15T01:07:03.693Z,47.4
2022-11-15T01:08:26.410Z,47.4
2022-11-15T01:09:20.156Z,47.4
2022-11-15T01:10:32.780Z,47.4
2022-11-15T01:11:46.114Z,47.4
2022-11-15T01:12:48.770Z,47.3
2022-11-15T01:14:02.114Z,47.3
2022-11-15T01:15:14.722Z,47.4
2022-11-15T01:16:28.134Z,47.3
2022-11-15T01:17:30.784Z,47.3
2022-11-15T01:18:44.244Z,47.3
2022-11-15T01:19:57.569Z,47.3
2022-11-15T01:21:01.139Z,47.4
2022-11-15T01:22:13.783Z,47.4
2022-11-15T01:23:27.175Z,47.3
2022-11-15T01:24:29.882Z,47.4
2022-11-15T01:25:44.120Z,47.4
2022-11-15T01:26:56.777Z,47.4
2022-11-15T01:28:00.133Z,47.4
2022-11-15T01:29:32.685Z,47.4
2022-11-15T01:30:26.123Z,47.5
2022-11-15T01:31:28.829Z,47.4
2022-11-15T01:32:42.651Z,47.4
2022-11-15T01:33:55.303Z,47.4
2022-11-15T01:35:08.721Z,47.3
2022-11-15T01:36:12.115Z,47.4
2022-11-15T01:37:25.637Z,47.4
2022-11-15T01:38:28.403Z,47.4
2022-11-15T01:39:41.628Z,47.3
2022-11-15T01:40:54.239Z,47.3
2022-11-15T01:42:07.659Z,47.3
2022-11-15T01:43:10.378Z,47.3
2022-11-15T01:44:23.639Z,47.3
2022-11-15T01:45:36.277Z,47.4
2022-11-15T01:46:40.704Z,47.4
2022-11-15T01:47:53.433Z,47.4
2022-11-15T01:49:06.664Z,47.4
2022-11-15T01:50:09.352Z,47.4
2022-11-15T01:51:22.634Z,47.4
2022-11-15T01:52:35.273Z,47.4
2022-11-15T01:53:38.651Z,47.4
2022-11-15T01:54:51.278Z,47.4
2022-11-15T01:56:04.664Z,47.4
2022-11-15T01:57:17.287Z,47.4
2022-11-15T01:58:20.632Z,47.4
2022-11-15T01:59:33.361Z,47.5
2022-11-15T02:00:46.748Z,47.5
2022-11-15T02:01:49.507Z,47.4
2022-11-15T02:03:03.167Z,47.4
2022-11-15T02:04:15.782Z,47.4
2022-11-15T02:05:19.125Z,47.5
2022-11-15T02:06:31.760Z,47.5
2022-11-15T02:07:45.149Z,47.4
2022-11-15T02:08:47.921Z,47.4
2022-11-15T02:10:01.166Z,47.5
2022-11-15T02:11:13.828Z,47.5
2022-11-15T02:12:27.168Z,47.4
2022-11-15T02:13:30.185Z,47.4
2022-11-15T02:14:44.169Z,47.5
2022-11-15T02:16:00.339Z,47.5
2022-11-15T02:17:06.140Z,47.4
2022-11-15T02:18:08.839Z,47.4
2022-11-15T02:19:22.172Z,47.5
2022-11-15T02:20:34.794Z,47.4
2022-11-15T02:21:38.178Z,47.5
2022-11-15T02:22:50.818Z,47.5
2022-11-15T02:24:04.180Z,47.4
2022-11-15T02:25:16.834Z,47.5
2022-11-15T02:26:20.156Z,47.4
2022-11-15T02:27:32.833Z,47.5
2022-11-15T02:28:46.696Z,47.5
2022-11-15T02:29:49.528Z,47.5
2022-11-15T02:31:03.150Z,47.4
2022-11-15T02:32:16.578Z,47.5
2022-11-15T02:33:20.160Z,47.5
2022-11-15T02:34:32.785Z,47.4
2022-11-15T02:35:46.154Z,47.5
2022-11-15T02:36:48.857Z,47.4
2022-11-15T02:39:21.625Z,47.5
2022-11-15T02:40:24.311Z,47.5
2022-11-15T02:41:27.591Z,47.4
2022-11-15T02:42:40.215Z,47.4
2022-11-15T02:43:53.557Z,47.4
2022-11-15T02:45:06.190Z,47.4
2022-11-15T02:46:09.600Z,47.4
2022-11-15T02:47:22.228Z,47.4
2022-11-15T02:48:35.573Z,47.4
2022-11-15T02:49:38.253Z,47.4
2022-11-15T02:50:52.123Z,47.4
2022-11-15T02:52:04.740Z,47.4
2022-11-15T02:53:08.088Z,47.4
2022-11-15T02:54:20.821Z,47.4
2022-11-15T02:55:34.067Z,47.4
2022-11-15T02:56:36.932Z,47.4
2022-11-15T02:57:50.586Z,47.4
2022-11-15T02:59:03.347Z,47.4
2022-11-15T03:00:17.092Z,47.4
2022-11-15T03:01:19.860Z,47.4
2022-11-15T03:02:33.607Z,47.4
2022-11-15T03:03:36.313Z,47.4
2022-11-15T03:04:49.560Z,47.4
2022-11-15T03:06:02.273Z,47.4
2022-11-15T03:07:15.594Z,47.3
2022-11-15T03:08:18.291Z,47.4
2022-11-15T03:10:11.603Z,47.4
2022-11-15T03:10:44.517Z,47.5
2022-11-15T03:11:47.214Z,47.4
2022-11-15T03:13:00.584Z,47.4
2022-11-15T03:14:13.174Z,47.4
2022-11-15T03:15:26.612Z,47.3
2022-11-15T03:16:29.277Z,47.3
2022-11-15T03:17:42.593Z,47.3
2022-11-15T03:18:55.234Z,47.3
2022-11-15T03:19:58.606Z,47.2
2022-11-15T03:21:11.280Z,47.2
2022-11-15T03:22:24.600Z,47.3
2022-11-15T03:23:27.259Z,47.3
2022-11-15T03:24:40.593Z,47.2
2022-11-15T03:25:54.500Z,47.2
2022-11-15T03:26:58.100Z,47.3
2022-11-15T03:28:10.957Z,47.2
2022-11-15T03:29:24.603Z,47.3
2022-11-15T03:30:27.323Z,47.3
2022-11-15T03:31:43.358Z,47.3
2022-11-15T03:32:48.464Z,47.3
2022-11-15T03:34:02.244Z,47.3
2022-11-15T03:35:14.882Z,47.3
2022-11-15T03:36:18.564Z,47.3
2022-11-15T03:37:31.207Z,47.3
2022-11-15T03:38:44.595Z,47.3
2022-11-15T03:39:47.280Z,47.2
2022-11-15T03:41:00.604Z,47.3
2022-11-15T03:42:13.253Z,47.3
2022-11-15T03:43:26.598Z,47.2
2022-11-15T03:44:29.304Z,47.3
2022-11-15T03:45:42.610Z,47.3
2022-11-15T03:46:55.304Z,47.3
2022-11-15T03:47:58.604Z,47.2
2022-11-15T03:49:11.252Z,47.3
2022-11-15T03:50:24.607Z,47.3
2022-11-15T03:51:27.317Z,47.3
2022-11-15T03:52:40.622Z,47.3
2022-11-15T03:53:53.265Z,47.3
2022-11-15T03:55:06.613Z,47.3
2022-11-15T03:56:09.465Z,47.3
2022-11-15T03:57:23.082Z,47.3
2022-11-15T03:58:35.726Z,47.3
2022-11-15T03:59:39.112Z,47.3
2022-11-15T04:00:51.801Z,47.3
2022-11-15T04:02:05.583Z,47.3
2022-11-15T04:03:08.394Z,47.3
2022-11-15T04:04:22.085Z,47.3
2022-11-15T04:05:34.742Z,47.3
2022-11-15T04:06:38.113Z,47.3
2022-11-15T04:07:50.797Z,47.3
2022-11-15T04:09:04.575Z,47.3
2022-11-15T04:10:07.416Z,47.3
2022-11-15T04:11:28.710Z,47.3
2022-11-15T04:12:31.575Z,47.3
2022-11-15T04:13:45.307Z,47.3
2022-11-15T04:14:48.012Z,47.3
2022-11-15T04:16:01.600Z,47.3
2022-11-15T04:17:14.230Z,47.3
2022-11-15T04:18:17.593Z,47.2
2022-11-15T04:19:30.193Z,47.2
2022-11-15T04:20:43.592Z,47.2
2022-11-15T04:21:46.284Z,47.3
2022-11-15T04:22:59.600Z,47.3
2022-11-15T04:24:12.227Z,47.3
2022-11-15T04:25:29.691Z,47.3
2022-11-15T04:26:34.816Z,47.3
2022-11-15T04:27:38.091Z,47.2
2022-11-15T04:28:50.710Z,47.2
2022-11-15T04:30:04.119Z,47.2
2022-11-15T04:31:06.832Z,47.2
2022-11-15T04:32:20.084Z,47.3
2022-11-15T04:33:33.024Z,47.2
2022-11-15T04:34:46.621Z,47.3
2022-11-15T04:35:49.283Z,47.2
2022-11-15T04:37:02.595Z,47.2
2022-11-15T04:38:15.278Z,47.2
2022-11-15T04:39:18.629Z,47.3
2022-11-15T04:40:31.254Z,47.3
2022-11-15T04:41:44.595Z,47.2
2022-11-15T04:42:47.242Z,47.2
2022-11-15T04:44:01.160Z,47.2
2022-11-15T04:45:13.777Z,47.3
2022-11-15T04:46:27.094Z,47.3
2022-11-15T04:47:29.777Z,47.2
2022-11-15T04:48:43.110Z,47.2
2022-11-15T04:49:55.719Z,47.2
2022-11-15T04:50:59.605Z,47.2
2022-11-15T04:52:12.205Z,47.2
2022-11-15T04:53:25.612Z,47.2
2022-11-15T04:54:28.344Z,47.2
2022-11-15T04:55:42.157Z,47.2
2022-11-15T04:56:54.792Z,47.2
2022-11-15T04:57:58.095Z,47.2
2022-11-15T04:59:10.698Z,47.2
2022-11-15T05:00:24.104Z,47.3
2022-11-15T05:01:26.905Z,47.2
2022-11-15T05:02:40.605Z,47.2
2022-11-15T05:03:53.245Z,47.2
2022-11-15T05:05:06.622Z,47.2
2022-11-15T05:06:09.318Z,47.2
2022-11-15T05:07:22.695Z,47.2
2022-11-15T05:08:35.415Z,47.2
2022-11-15T05:09:39.126Z,47.2
2022-11-15T05:10:51.732Z,47.2
2022-11-15T05:12:05.258Z,47.2
2022-11-15T05:13:07.940Z,47.2
2022-11-15T05:14:21.102Z,47.2
2022-11-15T05:15:33.848Z,47.2
2022-11-15T05:16:47.102Z,47.2
2022-11-15T05:17:49.803Z,47.2
2022-11-15T05:19:03.084Z,47.2
2022-11-15T05:20:15.680Z,47.2
2022-11-15T05:21:19.117Z,47.2
2022-11-15T05:22:31.741Z,47.2
2022-11-15T05:23:45.140Z,47.2
2022-11-15T05:24:47.836Z,47.2
2022-11-15T05:26:05.043Z,47.2
2022-11-15T05:27:10.716Z,47.2
2022-11-15T05:28:24.202Z,47.2
2022-11-15T05:29:36.806Z,47.2
2022-11-15T05:30:40.099Z,47.2
2022-11-15T05:31:52.735Z,47.2
2022-11-15T05:33:06.110Z,47.2
2022-11-15T05:34:08.784Z,47.2
2022-11-15T05:35:22.106Z,47.2
2022-11-15T05:36:34.699Z,47.3
2022-11-15T05:37:48.122Z,47.2
2022-11-15T05:38:50.798Z,47.3
2022-11-15T05:40:04.611Z,47.2
2022-11-15T05:41:07.314Z,47.2
2022-11-15T05:42:20.651Z,47.2
2022-11-15T05:43:33.432Z,47.2
2022-11-15T05:44:47.131Z,47.3
2022-11-15T05:45:49.922Z,47.2
2022-11-15T05:47:03.090Z,47.2
2022-11-15T05:48:15.713Z,47.2
2022-11-15T05:49:19.633Z,47.3
2022-11-15T05:50:32.244Z,47.3
2022-11-15T05:51:45.615Z,47.3
2022-11-15T05:52:48.292Z,47.3
2022-11-15T05:54:01.654Z,47.3
2022-11-15T05:55:14.253Z,47.2
2022-11-15T05:56:17.616Z,47.3
2022-11-15T05:57:30.198Z,47.2
2022-11-15T05:58:43.615Z,47.3
2022-11-15T05:59:46.267Z,47.2
2022-11-15T06:00:59.628Z,47.2
2022-11-15T06:02:12.510Z,47.2
2022-11-15T06:03:26.313Z,47.2
2022-11-15T06:04:30.081Z,47.2
2022-11-15T06:05:43.650Z,47.2
2022-11-15T06:06:47.151Z,47.4
2022-11-15T06:08:00.650Z,47.5
2022-11-15T06:09:13.228Z,47.4
2022-11-15T06:10:26.684Z,47.4
2022-11-15T06:11:29.261Z,47.5
2022-11-15T06:12:42.626Z,47.3
2022-11-15T06:13:55.046Z,47.2
2022-11-15T06:14:58.618Z,46.9
2022-11-15T06:16:11.133Z,46.8
2022-11-15T06:17:24.121Z,46.6
2022-11-15T06:18:26.571Z,46.4
2022-11-15T06:19:39.632Z,46.2
2022-11-15T06:20:52.004Z,46.0
2022-11-15T06:22:05.160Z,45.8
2022-11-15T06:23:07.677Z,45.5
2022-11-15T06:24:20.600Z,45.3
2022-11-15T06:25:32.916Z,45.2
2022-11-15T06:26:36.110Z,45.0
2022-11-15T06:27:48.456Z,44.8
2022-11-15T06:29:01.642Z,44.7
2022-11-15T06:30:14.106Z,44.7
2022-11-15T06:31:17.673Z,44.8
2022-11-15T06:32:30.087Z,44.9
2022-11-15T06:33:43.647Z,45.0
2022-11-15T06:34:46.174Z,45.1
2022-11-15T06:35:59.667Z,45.2
2022-11-15T06:37:12.169Z,45.3
2022-11-15T06:38:25.619Z,45.4
2022-11-15T06:39:28.195Z,45.4
2022-11-15T06:40:41.673Z,45.5
2022-11-15T06:41:54.250Z,45.7
2022-11-15T06:42:57.665Z,45.7
2022-11-15T06:44:10.170Z,45.8
2022-11-15T06:45:23.640Z,45.9
2022-11-15T06:46:26.256Z,45.9
2022-11-15T06:47:39.650Z,46.0
2022-11-15T06:48:52.199Z,46.0
2022-11-15T06:49:55.644Z,46.1
2022-11-15T06:51:08.187Z,46.2
2022-11-15T06:52:21.698Z,46.2
2022-11-15T06:53:24.300Z,46.2
2022-11-15T06:54:37.646Z,46.2
2022-11-15T06:55:54.987Z,46.2
2022-11-15T06:56:58.652Z,46.4
2022-11-15T06:58:11.184Z,46.4
2022-11-15T06:59:14.644Z,46.4
2022-11-15T07:00:27.202Z,46.4
2022-11-15T07:01:40.757Z,46.4
2022-11-15T07:02:53.401Z,46.4
2022-11-15T07:03:56.690Z,46.4
2022-11-15T07:05:09.259Z,46.4
2022-11-15T07:06:22.619Z,46.5
2022-11-15T07:07:25.274Z,46.5
2022-11-15T07:08:38.648Z,46.5
2022-11-15T07:09:51.208Z,46.5
2022-11-15T07:10:55.159Z,46.5
2022-11-15T07:12:08.088Z,46.5
2022-11-15T07:13:21.647Z,46.5
2022-11-15T07:14:24.298Z,46.5
2022-11-15T07:15:37.619Z,46.5
2022-11-15T07:16:50.193Z,46.5
2022-11-15T07:18:03.637Z,46.5
2022-11-15T07:19:06.307Z,46.5
2022-11-15T07:20:19.653Z,46.5
2022-11-15T07:21:32.231Z,46.5
2022-11-15T07:22:35.672Z,46.5
2022-11-15T07:23:48.300Z,46.5
2022-11-15T07:25:01.654Z,46.5
2022-11-15T07:26:04.404Z,46.5
2022-11-15T07:27:18.156Z,46.5
2022-11-15T07:28:31.171Z,46.5
2022-11-15T07:29:44.644Z,46.5
2022-11-15T07:30:47.287Z,46.5
2022-11-15T07:32:00.653Z,46.5
2022-11-15T07:33:13.266Z,46.5
2022-11-15T07:34:17.641Z,46.5
2022-11-15T07:35:30.526Z,46.6
2022-11-15T07:36:50.623Z,46.7
2022-11-15T07:39:12.181Z,46.7
2022-11-15T07:39:25.082Z,46.9
2022-11-15T07:40:08.010Z,46.9
2022-11-15T07:41:21.159Z,46.8
2022-11-15T07:42:23.769Z,46.7
2022-11-15T07:43:37.333Z,46.6
2022-11-15T07:44:50.007Z,46.5
2022-11-15T07:46:03.143Z,46.6
2022-11-15T07:47:05.711Z,46.6
2022-11-15T07:48:19.179Z,46.4
2022-11-15T07:49:32.020Z,46.2
2022-11-15T07:50:35.146Z,46.0
2022-11-15T07:51:47.515Z,45.8
2022-11-15T07:53:00.655Z,45.3
2022-11-15T07:54:13.005Z,45.1
2022-11-15T07:55:16.174Z,44.0
2022-11-15T07:56:28.757Z,43.1
2022-11-15T07:57:41.689Z,43.0
2022-11-15T07:58:44.139Z,43.0
2022-11-15T07:59:57.171Z,43.4
2022-11-15T08:01:10.652Z,43.6
2022-11-15T08:02:14.316Z,43.6
2022-11-15T08:03:26.921Z,43.7
2022-11-15T08:04:49.671Z,43.6
2022-11-15T08:06:11.481Z,43.6
2022-11-15T08:07:24.853Z,43.4
2022-11-15T08:08:07.625Z,43.5
2022-11-15T08:09:19.897Z,43.3
2022-11-15T08:10:37.828Z,43.3
2022-11-15T08:11:32.896Z,43.2
2022-11-15T08:12:46.221Z,43.0
2022-11-15T08:13:58.685Z,42.9
2022-11-15T08:15:11.709Z,42.9
2022-11-15T08:16:14.115Z,42.7
2022-11-15T08:17:27.166Z,42.7
2022-11-15T08:18:39.581Z,42.6
2022-11-15T08:19:52.695Z,42.6
2022-11-15T08:20:55.158Z,42.6
2022-11-15T08:22:08.191Z,42.5
2022-11-15T08:23:20.487Z,42.5
2022-11-15T08:24:23.662Z,42.4
2022-11-15T08:25:35.913Z,42.4
2022-11-15T08:26:49.304Z,42.4
2022-11-15T08:27:51.733Z,42.4
2022-11-15T08:29:04.685Z,42.3
2022-11-15T08:30:16.918Z,42.2
2022-11-15T08:31:30.186Z,42.2
2022-11-15T08:32:32.570Z,42.2
2022-11-15T08:33:45.677Z,42.3
2022-11-15T08:34:57.929Z,42.2
2022-11-15T08:36:11.165Z,42.1
2022-11-15T08:37:13.553Z,42.2
2022-11-15T08:38:36.164Z,42.1
2022-11-15T08:39:40.005Z,42.1
2022-11-15T08:40:43.190Z,42.0
2022-11-15T08:41:55.435Z,42.0
2022-11-15T08:43:08.722Z,42.0
2022-11-15T08:44:11.031Z,42.0
2022-11-15T08:45:26.688Z,42.0
2022-11-15T08:46:38.898Z,41.9
2022-11-15T08:47:42.172Z,41.9
2022-11-15T08:48:54.428Z,41.9
2022-11-15T08:50:07.746Z,41.8
2022-11-15T08:51:10.126Z,41.8
2022-11-15T08:52:23.196Z,41.8
2022-11-15T08:53:35.646Z,41.8
2022-11-15T08:54:58.156Z,41.8
2022-11-15T08:55:50.577Z,41.8
2022-11-15T08:57:03.678Z,41.7
2022-11-15T08:58:15.912Z,41.6
2022-11-15T08:59:19.276Z,41.6
2022-11-15T09:00:31.485Z,41.6
2022-11-15T09:01:44.804Z,41.7
2022-11-15T09:02:57.135Z,41.7
2022-11-15T09:04:00.227Z,41.6
2022-11-15T09:05:12.443Z,41.6
2022-11-15T09:06:25.189Z,41.6
2022-11-15T09:07:27.582Z,41.5
2022-11-15T09:08:47.347Z,41.5
2022-11-15T09:09:50.711Z,41.5
2022-11-15T09:11:03.713Z,41.4
2022-11-15T09:12:15.917Z,41.5
2022-11-15T09:13:19.178Z,41.5
2022-11-15T09:14:31.371Z,41.5
2022-11-15T09:15:44.200Z,41.3
2022-11-15T09:16:46.523Z,41.4
2022-11-15T09:17:59.703Z,41.3
2022-11-15T09:19:12.181Z,41.4
2022-11-15T09:20:25.172Z,41.4
2022-11-15T09:21:27.445Z,41.4
2022-11-15T09:22:40.201Z,41.4
2022-11-15T09:23:52.439Z,41.4
2022-11-15T09:25:07.300Z,41.4
2022-11-15T09:26:12.249Z,41.4
2022-11-15T09:27:15.171Z,41.4
2022-11-15T09:28:27.365Z,41.3
2022-11-15T09:29:40.196Z,41.4
2022-11-15T09:30:52.421Z,41.4
2022-11-15T09:31:55.767Z,41.3
2022-11-15T09:33:07.946Z,41.3
2022-11-15T09:34:20.710Z,41.3
2022-11-15T09:35:32.895Z,41.3
2022-11-15T09:36:37.236Z,41.3
2022-11-15T09:37:54.962Z,41.3
2022-11-15T09:38:59.216Z,41.3
2022-11-15T09:40:11.448Z,41.2
2022-11-15T09:41:14.684Z,41.2
2022-11-15T09:42:26.874Z,41.3
2022-11-15T09:43:41.294Z,41.2
2022-11-15T09:44:43.618Z,41.3
2022-11-15T09:45:56.734Z,41.2
2022-11-15T09:47:08.935Z,41.1
2022-11-15T09:48:12.236Z,39.8
2022-11-15T09:49:24.424Z,40.4
2022-11-15T09:50:37.227Z,40.8
2022-11-15T09:51:49.348Z,40.8
2022-11-15T09:52:52.708Z,40.9
2022-11-15T09:55:18.218Z,41.0
2022-11-15T09:56:20.481Z,41.0
2022-11-15T09:57:33.741Z,41.0
2022-11-15T09:58:45.926Z,41.0
2022-11-15T10:00:07.780Z,41.0
2022-11-15T10:01:00.592Z,41.0
2022-11-15T10:02:23.710Z,41.0
2022-11-15T10:03:26.077Z,41.0
2022-11-15T10:04:29.201Z,40.9
2022-11-15T10:05:41.387Z,40.9
2022-11-15T10:06:54.268Z,40.8
2022-11-15T10:08:06.533Z,40.8
2022-11-15T10:09:09.715Z,40.7
2022-11-15T10:10:21.889Z,40.6
2022-11-15T10:11:37.791Z,40.6
2022-11-15T10:12:41.147Z,40.4
2022-11-15T10:13:54.201Z,40.5
2022-11-15T10:14:56.419Z,40.5
2022-11-15T10:16:09.224Z,40.3
2022-11-15T10:17:21.324Z,40.2
2022-11-15T10:18:34.439Z,40.1
2022-11-15T10:19:36.912Z,40.0
2022-11-15T10:20:49.734Z,39.9
2022-11-15T10:22:01.904Z,39.9
2022-11-15T10:23:14.939Z,39.8
2022-11-15T10:24:17.166Z,39.8
2022-11-15T10:25:30.235Z,39.7
2022-11-15T10:26:42.435Z,39.8
2022-11-15T10:27:45.706Z,39.7
2022-11-15T10:28:57.850Z,39.6
2022-11-15T10:30:10.761Z,39.5
2022-11-15T10:31:14.485Z,39.6
2022-11-15T10:32:28.743Z,39.4
2022-11-15T10:33:40.797Z,39.4
2022-11-15T10:34:43.691Z,39.4
2022-11-15T10:35:55.843Z,39.3
2022-11-15T10:37:08.706Z,39.3
2022-11-15T10:38:20.843Z,39.2
2022-11-15T10:39:23.739Z,39.1
2022-11-15T10:40:35.842Z,39.1
2022-11-15T10:41:48.710Z,39.1
2022-11-15T10:42:50.937Z,39.0
2022-11-15T10:44:05.223Z,39.0
2022-11-15T10:45:17.329Z,38.9
2022-11-15T10:46:45.083Z,39.0
2022-11-15T10:47:39.852Z,38.9
2022-11-15T10:48:42.283Z,38.8
2022-11-15T10:49:55.231Z,38.8
2022-11-15T10:51:07.339Z,38.8
2022-11-15T10:52:10.220Z,38.6
2022-11-15T10:53:22.249Z,38.6
2022-11-15T10:54:35.214Z,38.6
2022-11-15T10:55:37.348Z,38.5
2022-11-15T10:56:50.202Z,38.4
2022-11-15T10:58:02.238Z,38.5
2022-11-15T10:59:15.218Z,38.4
2022-11-15T11:00:17.420Z,38.4
2022-11-15T11:01:30.310Z,38.4
2022-11-15T11:02:42.437Z,38.4
2022-11-15T11:03:55.227Z,38.3
2022-11-15T11:04:57.402Z,38.3
2022-11-15T11:06:10.217Z,38.3
2022-11-15T11:07:22.368Z,38.2
2022-11-15T11:08:25.236Z,38.2
2022-11-15T11:09:37.330Z,38.2
2022-11-15T11:10:51.955Z,38.3
2022-11-15T11:11:55.572Z,38.2
2022-11-15T11:13:08.274Z,38.1
2022-11-15T11:14:20.285Z,38.1
2022-11-15T11:15:23.347Z,38.0
2022-11-15T11:16:38.836Z,38.0
2022-11-15T11:17:42.229Z,37.9
2022-11-15T11:18:54.207Z,37.9
2022-11-15T11:20:07.285Z,37.8
2022-11-15T11:21:09.478Z,37.8
2022-11-15T11:22:24.711Z,37.7
2022-11-15T11:23:36.707Z,37.6
2022-11-15T11:24:39.730Z,37.6
2022-11-15T11:25:51.731Z,37.6
2022-11-15T11:27:04.720Z,37.6
2022-11-15T11:28:16.717Z,37.5
2022-11-15T11:29:19.744Z,37.5
2022-11-15T11:30:31.743Z,37.5
2022-11-15T11:31:44.726Z,37.4
2022-11-15T11:32:49.324Z,37.4
2022-11-15T11:34:05.267Z,37.4
2022-11-15T11:35:07.396Z,37.3
2022-11-15T11:36:20.234Z,37.3
2022-11-15T11:37:32.209Z,37.3
2022-11-15T11:38:45.233Z,37.3
2022-11-15T11:39:47.380Z,37.3
2022-11-15T11:41:00.264Z,37.3
2022-11-15T11:42:12.261Z,37.3
2022-11-15T11:43:15.231Z,37.3
2022-11-15T11:44:27.140Z,37.3
2022-11-15T11:45:44.796Z,37.3
2022-11-15T11:46:49.328Z,37.3
2022-11-15T11:48:02.255Z,37.3
2022-11-15T11:49:04.415Z,37.3
2022-11-15T11:50:17.252Z,37.3
2022-11-15T11:51:29.244Z,37.3
2022-11-15T11:52:32.748Z,37.3
2022-11-15T11:53:44.738Z,37.3
2022-11-15T11:54:57.750Z,37.3
2022-11-15T11:55:59.840Z,37.3
2022-11-15T11:57:12.762Z,37.2
2022-11-15T11:58:24.749Z,37.2
2022-11-15T11:59:37.735Z,37.2
2022-11-15T12:00:39.852Z,37.1
2022-11-15T12:01:52.884Z,37.1
2022-11-15T12:03:05.098Z,37.1
2022-11-15T12:04:08.269Z,37.0
2022-11-15T12:05:20.259Z,37.0
2022-11-15T12:06:33.238Z,37.1
2022-11-15T12:07:45.228Z,37.0
2022-11-15T12:08:48.237Z,37.1
2022-11-15T12:10:09.928Z,37.1
2022-11-15T12:11:12.788Z,37.0
2022-11-15T12:12:24.744Z,37.1
2022-11-15T12:13:28.225Z,37.0
2022-11-15T12:14:40.187Z,36.9
2022-11-15T12:15:52.767Z,36.9
2022-11-15T12:16:54.920Z,36.9
2022-11-15T12:18:07.760Z,36.9
2022-11-15T12:19:19.732Z,36.9
2022-11-15T12:20:32.248Z,36.9
2022-11-15T12:21:34.326Z,36.9
2022-11-15T12:22:47.743Z,36.9
2022-11-15T12:23:59.689Z,36.9
2022-11-15T12:25:02.766Z,36.9
2022-11-15T12:26:14.749Z,36.9
2022-11-15T12:27:27.775Z,36.9
2022-11-15T12:28:52.832Z,37.0
2022-11-15T12:29:41.744Z,37.0
2022-11-15T12:30:53.699Z,37.0
2022-11-15T12:32:06.251Z,37.0
2022-11-15T12:33:18.223Z,37.0
2022-11-15T12:34:21.250Z,37.1
2022-11-15T12:35:33.197Z,37.0
2022-11-15T12:36:45.752Z,37.1
2022-11-15T12:37:47.963Z,37.1
2022-11-15T12:39:00.774Z,37.1
2022-11-15T12:40:12.948Z,37.1
2022-11-15T12:41:25.767Z,37.2
2022-11-15T12:42:27.866Z,37.2
2022-11-15T12:43:40.766Z,37.1
2022-11-15T12:44:52.723Z,37.1
2022-11-15T12:46:05.777Z,37.2
2022-11-15T12:47:07.895Z,37.2
2022-11-15T12:48:20.745Z,37.2
2022-11-15T12:49:32.686Z,37.2
2022-11-15T12:50:35.770Z,37.2
2022-11-15T12:51:47.708Z,37.1
2022-11-15T12:53:00.266Z,36.7
2022-11-15T12:54:12.221Z,36.3
2022-11-15T12:55:15.248Z,36.1
2022-11-15T12:56:27.183Z,36.7
2022-11-15T12:57:39.773Z,36.4
2022-11-15T12:58:51.706Z,36.1
2022-11-15T12:59:54.747Z,36.2
2022-11-15T13:01:06.716Z,36.4
2022-11-15T13:02:19.732Z,36.8
2022-11-15T13:03:21.766Z,36.8
2022-11-15T13:04:34.243Z,36.7
2022-11-15T13:05:46.188Z,36.7
2022-11-15T13:06:58.803Z,36.7
2022-11-15T13:08:01.072Z,36.4
2022-11-15T13:09:13.740Z,36.6
2022-11-15T13:10:27.951Z,36.1
2022-11-15T13:11:31.280Z,35.5
2022-11-15T13:12:43.205Z,35.3
2022-11-15T13:13:55.759Z,35.8
2022-11-15T13:15:07.608Z,35.5
2022-11-15T13:16:10.251Z,35.9
2022-11-15T13:17:22.168Z,35.8
2022-11-15T13:18:35.151Z,36.0
2022-11-15T13:19:37.654Z,35.7
2022-11-15T13:20:50.396Z,35.9
2022-11-15T13:22:02.310Z,36.0
2022-11-15T13:23:14.750Z,36.1
2022-11-15T13:24:16.668Z,36.1
2022-11-15T13:25:29.315Z,35.5
2022-11-15T13:26:41.246Z,35.0
2022-11-15T13:28:13.282Z,35.8
2022-11-15T13:28:55.744Z,35.8
2022-11-15T13:30:07.661Z,36.0
2022-11-15T13:31:20.267Z,35.8
2022-11-15T13:32:32.193Z,35.4
2022-11-15T13:33:36.458Z,35.6
2022-11-15T13:34:52.353Z,35.8
2022-11-15T13:35:55.750Z,35.8
2022-11-15T13:37:07.688Z,35.8
2022-11-15T13:38:20.297Z,35.9
2022-11-15T13:39:22.408Z,36.0
2022-11-15T13:40:35.284Z,36.0
2022-11-15T13:41:47.208Z,36.0
2022-11-15T13:43:00.305Z,36.1
2022-11-15T13:44:02.429Z,36.1
2022-11-15T13:45:15.321Z,36.2
2022-11-15T13:46:27.414Z,36.2
2022-11-15T13:47:30.249Z,36.3
2022-11-15T13:48:42.158Z,36.2
2022-11-15T13:49:54.789Z,36.3
2022-11-15T13:51:06.715Z,36.4
2022-11-15T13:52:09.757Z,36.4
2022-11-15T13:53:21.715Z,36.4
2022-11-15T13:54:34.332Z,36.4
2022-11-15T13:55:46.307Z,36.5
2022-11-15T13:56:49.289Z,36.4
2022-11-15T13:58:01.251Z,36.5
2022-11-15T13:59:13.783Z,36.5
2022-11-15T14:00:15.895Z,36.5
2022-11-15T14:01:47.872Z,36.6
2022-11-15T14:02:40.223Z,36.5
2022-11-15T14:03:53.393Z,36.6
2022-11-15T14:04:55.919Z,36.6
2022-11-15T14:06:09.308Z,36.6
2022-11-15T14:07:21.468Z,36.7
2022-11-15T14:08:24.257Z,36.6
2022-11-15T14:09:36.136Z,36.6
2022-11-15T14:10:49.290Z,36.6
2022-11-15T14:12:01.315Z,36.6
2022-11-15T14:13:04.266Z,36.6
2022-11-15T14:14:16.237Z,36.7
2022-11-15T14:15:29.811Z,36.7
2022-11-15T14:16:41.664Z,36.7
2022-11-15T14:17:49.780Z,36.7
2022-11-15T14:18:52.542Z,36.6
2022-11-15T14:20:05.276Z,36.7
2022-11-15T14:21:17.238Z,36.7
2022-11-15T14:22:20.300Z,36.7
2022-11-15T14:23:32.270Z,36.7
2022-11-15T14:24:54.816Z,36.7
2022-11-15T14:25:56.963Z,36.8
2022-11-15T14:26:59.783Z,36.8
2022-11-15T14:28:12.031Z,36.9
2022-11-15T14:29:25.344Z,37.0
2022-11-15T14:30:27.418Z,37.0
2022-11-15T14:31:43.753Z,37.1
2022-11-15T14:32:46.219Z,37.2
2022-11-15T14:33:58.823Z,37.2
2022-11-15T14:35:11.067Z,37.2
2022-11-15T14:36:23.848Z,37.3
2022-11-15T14:37:26.011Z,37.4
2022-11-15T14:38:38.812Z,37.4
2022-11-15T14:39:50.616Z,37.4
2022-11-15T14:41:03.816Z,37.5
2022-11-15T14:42:15.806Z,37.5
2022-11-15T14:43:18.820Z,37.6
2022-11-15T14:44:30.829Z,37.7
2022-11-15T14:45:33.821Z,37.7
2022-11-15T14:46:45.853Z,37.7
2022-11-15T14:47:58.845Z,37.7
2022-11-15T14:49:01.052Z,37.8
2022-11-15T14:50:13.804Z,37.8
2022-11-15T14:51:25.853Z,37.8
2022-11-15T14:52:38.802Z,37.9
2022-11-15T14:53:40.931Z,37.9
2022-11-15T14:54:53.897Z,38.0
2022-11-15T14:56:05.932Z,38.0
2022-11-15T14:57:18.873Z,38.0
2022-11-15T14:58:21.095Z,38.1
2022-11-15T14:59:33.797Z,38.1
2022-11-15T15:00:45.836Z,38.2
2022-11-15T15:01:48.802Z,38.1
2022-11-15T15:03:00.867Z,38.2
2022-11-15T15:04:13.824Z,38.2
2022-11-15T15:05:25.834Z,38.2
2022-11-15T15:06:28.804Z,38.3
2022-11-15T15:07:41.246Z,38.3
2022-11-15T15:08:54.313Z,38.3
2022-11-15T15:10:24.507Z,38.3
2022-11-15T15:11:11.823Z,38.4
2022-11-15T15:12:23.895Z,38.4
2022-11-15T15:13:26.834Z,38.4
2022-11-15T15:14:38.917Z,38.3
2022-11-15T15:15:51.817Z,38.4
2022-11-15T15:16:54.043Z,38.5
2022-11-15T15:18:06.827Z,38.7
2022-11-15T15:19:19.033Z,38.9
2022-11-15T15:20:31.814Z,39.1
2022-11-15T15:21:37.474Z,39.3
2022-11-15T15:22:50.783Z,39.6
2022-11-15T15:23:53.201Z,39.8
2022-11-15T15:25:06.316Z,40.0
2022-11-15T15:26:18.578Z,40.1
2022-11-15T15:27:31.788Z,40.3
2022-11-15T15:28:35.071Z,40.5
2022-11-15T15:29:48.309Z,40.7
2022-11-15T15:30:50.743Z,40.8
2022-11-15T15:32:03.839Z,40.9